Time;durP1;ratioP1;P1;durP2;ratioP2;P2;SDS_P1;SDS_P2;PMS_P1;PMS_P2;Temp;Humidity;BMP_temperature;BMP_pressure;BME280_temperature;BME280_humidity;BME280_pressure;Samples;Min_cycle;Max_cycle;Signal;HPM_P1;HPM_P2
2024/01/06 00:00:04;;;;;;;6.77;4.50;;;;;;;1.85;100.00;96508.69;6204008;28;20266;-58
2024/01/06 00:03:13;;;;;;;8.93;4.60;;;;;;;1.89;100.00;96511.69;6201767;28;20207;-56
2024/01/06 00:06:15;;;;;;;7.27;3.90;;;;;;;1.92;100.00;96511.22;6205919;28;20194;-58
2024/01/06 00:09:18;;;;;;;7.43;4.07;;;;;;;1.95;100.00;96511.63;6208254;28;20218;-59
2024/01/06 00:12:20;;;;;;;5.17;4.13;;;;;;;1.99;100.00;96514.63;6198032;28;20211;-58
2024/01/06 00:15:25;;;;;;;4.97;3.70;;;;;;;2.01;100.00;96515.19;6207025;28;20210;-59
2024/01/06 00:18:29;;;;;;;4.77;3.20;;;;;;;2.03;100.00;96521.84;6205417;28;20203;-58
2024/01/06 00:21:34;;;;;;;7.40;4.00;;;;;;;2.06;100.00;96525.84;6208090;28;20203;-59
2024/01/06 00:24:41;;;;;;;7.43;4.53;;;;;;;2.09;100.00;96527.25;6208729;28;20209;-59
2024/01/06 00:27:46;;;;;;;6.30;4.60;;;;;;;2.12;100.00;96524.19;6208587;28;20587;-59
2024/01/06 00:30:50;;;;;;;7.67;4.70;;;;;;;2.13;100.00;96518.72;6208830;28;20557;-58
2024/01/06 00:33:52;;;;;;;9.73;5.57;;;;;;;2.16;100.00;96518.28;6210288;28;20213;-59
2024/01/06 00:36:59;;;;;;;8.33;5.30;;;;;;;2.20;100.00;96526.53;6205295;28;20573;-58
2024/01/06 00:40:04;;;;;;;9.40;4.97;;;;;;;2.22;100.00;96522.69;6199386;28;20200;-58
2024/01/06 00:43:11;;;;;;;8.67;5.77;;;;;;;2.25;100.00;96510.94;6204497;28;20222;-58
2024/01/06 00:46:17;;;;;;;12.23;6.67;;;;;;;2.30;100.00;96501.38;6210290;28;20199;-59
2024/01/06 00:49:19;;;;;;;10.27;6.40;;;;;;;2.36;100.00;96501.50;6210358;28;20213;-59
2024/01/06 00:52:22;;;;;;;14.67;7.90;;;;;;;2.35;100.00;96497.28;6211629;28;20213;-57
2024/01/06 00:55:26;;;;;;;9.67;7.10;;;;;;;2.43;100.00;96512.78;6210396;28;20234;-57
2024/01/06 00:58:30;;;;;;;9.70;6.80;;;;;;;2.47;100.00;96519.22;6209478;28;20271;-57
2024/01/06 01:01:32;;;;;;;8.47;6.53;;;;;;;2.52;100.00;96517.53;6207089;28;20339;-56
2024/01/06 01:04:38;;;;;;;11.17;7.67;;;;;;;2.59;100.00;96518.25;6209024;28;20194;-59
2024/01/06 01:07:42;;;;;;;11.27;6.53;;;;;;;2.62;100.00;96532.78;6209101;28;20344;-57
2024/01/06 01:10:45;;;;;;;8.57;6.53;;;;;;;2.64;100.00;96535.19;6213013;28;20188;-60
2024/01/06 01:13:50;;;;;;;11.73;6.33;;;;;;;2.66;100.00;96535.75;6213124;28;20193;-59
2024/01/06 01:16:54;;;;;;;9.03;6.13;;;;;;;2.61;100.00;96525.94;6217517;28;20212;-58
2024/01/06 01:19:56;;;;;;;6.97;5.17;;;;;;;2.62;100.00;96527.53;6207477;28;20581;-58
2024/01/06 01:23:01;;;;;;;6.80;5.03;;;;;;;2.63;100.00;96523.88;6212337;28;20550;-59
2024/01/06 01:26:06;;;;;;;9.77;5.87;;;;;;;2.64;100.00;96530.72;6207467;28;20244;-59
2024/01/06 01:29:09;;;;;;;9.23;5.80;;;;;;;2.65;100.00;96531.53;6208489;28;20213;-58
2024/01/06 01:32:11;;;;;;;8.43;5.67;;;;;;;2.64;100.00;96530.72;6209173;28;20201;-59
2024/01/06 01:35:17;;;;;;;9.83;6.57;;;;;;;2.65;100.00;96536.78;6209817;28;20201;-59
2024/01/06 01:38:23;;;;;;;10.37;6.50;;;;;;;2.56;100.00;96516.06;6210322;28;20268;-59
2024/01/06 01:41:28;;;;;;;11.23;6.40;;;;;;;2.65;100.00;96526.28;6209217;28;20193;-59
2024/01/06 01:44:30;;;;;;;10.47;8.07;;;;;;;2.67;100.00;96517.16;6206177;28;20200;-58
2024/01/06 01:47:39;;;;;;;11.20;7.77;;;;;;;2.63;100.00;96508.09;6214041;28;20202;-59
2024/01/06 01:50:45;;;;;;;10.80;7.53;;;;;;;2.63;100.00;96507.28;6190123;28;20216;-59
2024/01/06 01:53:49;;;;;;;11.20;7.77;;;;;;;2.64;100.00;96493.91;6207631;28;20623;-60
2024/01/06 01:56:55;;;;;;;12.97;8.77;;;;;;;2.65;100.00;96495.53;6210362;28;20201;-59
2024/01/06 02:00:01;;;;;;;14.63;9.20;;;;;;;2.64;100.00;96486.03;6207710;28;20905;-60
2024/01/06 02:03:14;;;;;;;15.10;9.70;;;;;;;2.64;100.00;96480.78;6213788;28;20241;-60
2024/01/06 02:06:22;;;;;;;14.00;9.10;;;;;;;2.65;100.00;96476.31;6200728;28;20197;-60
2024/01/06 02:09:29;;;;;;;13.57;9.03;;;;;;;2.65;100.00;96474.47;6205998;28;20216;-59
2024/01/06 02:12:34;;;;;;;15.10;10.40;;;;;;;2.65;100.00;96477.13;6206168;28;20529;-59
2024/01/06 02:15:39;;;;;;;15.83;10.17;;;;;;;2.65;100.00;96471.84;6208771;28;20288;-57
2024/01/06 02:18:43;;;;;;;13.57;10.03;;;;;;;2.60;100.00;96458.56;6205849;28;20181;-59
2024/01/06 02:21:54;;;;;;;16.00;9.80;;;;;;;2.62;100.00;96472.31;6208768;28;20204;-60
2024/01/06 02:25:02;;;;;;;14.87;10.43;;;;;;;2.61;100.00;96468.09;6208428;28;20664;-57
2024/01/06 02:28:06;;;;;;;20.93;11.00;;;;;;;2.61;100.00;96475.97;6200747;28;20357;-57
2024/01/06 02:31:11;;;;;;;15.00;10.33;;;;;;;2.60;100.00;96474.34;6190681;28;20219;-59
2024/01/06 02:34:16;;;;;;;20.00;11.50;;;;;;;2.61;100.00;96464.63;6200426;28;20282;-58
2024/01/06 02:37:20;;;;;;;17.60;10.50;;;;;;;2.53;100.00;96457.88;6204110;28;20200;-57
2024/01/06 02:40:22;;;;;;;15.33;10.13;;;;;;;2.62;100.00;96469.69;6203518;28;20197;-59
2024/01/06 02:43:26;;;;;;;12.40;8.57;;;;;;;2.65;100.00;96471.06;6185266;28;20203;-59
2024/01/06 02:46:32;;;;;;;16.43;10.50;;;;;;;2.66;100.00;96460.34;6205991;28;20193;-59
2024/01/06 02:49:34;;;;;;;13.63;8.27;;;;;;;2.58;100.00;96447.50;6205018;28;20240;-56
2024/01/06 02:52:37;;;;;;;14.87;8.97;;;;;;;2.72;100.00;96450.75;6190033;28;20212;-58
2024/01/06 02:55:42;;;;;;;12.20;9.37;;;;;;;2.66;100.00;96441.09;6187136;28;20239;-59
2024/01/06 02:58:48;;;;;;;16.67;10.57;;;;;;;2.72;100.00;96456.81;6209740;28;20239;-59
2024/01/06 03:01:52;;;;;;;16.30;11.27;;;;;;;2.72;100.00;96441.03;6210187;28;20233;-59
2024/01/06 03:04:56;;;;;;;18.87;9.63;;;;;;;2.75;100.00;96458.19;6206442;28;20208;-59
2024/01/06 03:07:59;;;;;;;12.20;8.93;;;;;;;2.76;100.00;96444.84;6190595;28;20189;-59
2024/01/06 03:11:05;;;;;;;17.13;10.53;;;;;;;2.78;100.00;96441.97;6203792;28;20188;-58
2024/01/06 03:14:08;;;;;;;13.50;9.60;;;;;;;2.76;100.00;96447.47;6203498;28;20208;-60
2024/01/06 03:17:14;;;;;;;16.07;10.50;;;;;;;2.78;100.00;96448.03;6209061;28;20575;-59
2024/01/06 03:20:18;;;;;;;13.60;9.90;;;;;;;2.78;100.00;96448.03;6205032;28;20231;-59
2024/01/06 03:23:21;;;;;;;14.83;9.67;;;;;;;2.79;100.00;96449.63;6205599;28;20192;-59
2024/01/06 03:26:24;;;;;;;14.47;9.80;;;;;;;2.80;100.00;96450.44;6174010;28;20201;-59
2024/01/06 03:29:28;;;;;;;14.93;10.30;;;;;;;2.78;100.00;96444.59;6205996;28;20208;-59
2024/01/06 03:32:34;;;;;;;13.50;9.77;;;;;;;2.80;100.00;96453.84;6213140;28;20201;-60
2024/01/06 03:35:37;;;;;;;17.13;10.43;;;;;;;2.81;100.00;96467.84;6205153;28;20275;-59
2024/01/06 03:38:43;;;;;;;13.57;10.60;;;;;;;2.82;100.00;96462.34;6203658;28;20181;-59
2024/01/06 03:41:48;;;;;;;15.03;11.27;;;;;;;2.84;100.00;96451.59;6200680;28;20276;-59
2024/01/06 03:44:51;;;;;;;13.20;9.27;;;;;;;2.86;100.00;96449.56;6205168;28;20232;-58
2024/01/06 03:47:54;;;;;;;12.10;9.57;;;;;;;2.87;100.00;96453.78;6205484;28;20317;-59
2024/01/06 03:51:02;;;;;;;14.50;10.00;;;;;;;2.87;100.00;96455.63;6202750;28;20285;-59
2024/01/06 03:54:08;;;;;;;13.07;9.13;;;;;;;2.89;100.00;96451.72;6208143;28;20231;-57
2024/01/06 03:57:15;;;;;;;10.63;8.73;;;;;;;2.91;100.00;96464.69;6207779;28;20194;-59
2024/01/06 04:00:21;;;;;;;13.40;10.33;;;;;;;2.92;100.00;96476.78;6195277;28;20565;-60
2024/01/06 04:03:29;;;;;;;13.70;10.73;;;;;;;2.81;100.00;96466.00;6206667;28;20204;-58
2024/01/06 04:06:34;;;;;;;15.80;11.67;;;;;;;2.80;100.00;96455.69;6209286;28;20727;-57
2024/01/06 04:09:43;;;;;;;17.10;11.00;;;;;;;2.95;100.00;96484.22;6205966;28;20246;-59
2024/01/06 04:12:50;;;;;;;17.63;11.17;;;;;;;2.95;100.00;96487.66;6204207;28;20201;-59
2024/01/06 04:15:56;;;;;;;13.57;10.90;;;;;;;2.97;100.00;96490.09;6206128;28;20200;-59
2024/01/06 04:19:01;;;;;;;16.90;11.60;;;;;;;2.99;100.00;96490.66;6207759;28;20208;-59
2024/01/06 04:22:06;;;;;;;15.13;9.90;;;;;;;2.90;100.00;96474.38;6208065;28;20201;-59
2024/01/06 04:25:12;;;;;;;16.67;11.50;;;;;;;3.01;100.00;96496.50;6205640;28;20201;-59
2024/01/06 04:28:17;;;;;;;17.07;12.77;;;;;;;2.95;100.00;96489.47;6203702;28;20565;-59
2024/01/06 04:31:23;;;;;;;20.17;13.57;;;;;;;3.01;100.00;96494.69;6204209;28;20193;-56
2024/01/06 04:34:27;;;;;;;19.10;14.10;;;;;;;2.92;100.00;96479.44;6202293;28;20318;-58
2024/01/06 04:37:34;;;;;;;17.93;13.00;;;;;;;3.04;100.00;96499.47;6206230;28;20237;-59
2024/01/06 04:40:38;;;;;;;17.80;12.57;;;;;;;3.06;100.00;96501.91;6208647;28;20276;-60
2024/01/06 04:43:43;;;;;;;21.53;17.00;;;;;;;3.00;100.00;96493.03;6186018;28;20209;-59
2024/01/06 04:46:47;;;;;;;37.27;24.37;;;;;;;3.11;100.00;96515.19;6200418;28;20197;-58
2024/01/06 04:49:54;;;;;;;35.90;25.23;;;;;;;3.10;100.00;96514.41;6203094;28;20201;-59
2024/01/06 04:53:00;;;;;;;39.43;25.90;;;;;;;3.09;100.00;96507.50;6199092;28;20696;-59
2024/01/06 04:56:04;;;;;;;37.83;26.03;;;;;;;3.09;100.00;96504.06;6203154;28;20244;-59
2024/01/06 04:59:09;;;;;;;37.00;25.27;;;;;;;3.05;100.00;96508.16;6185971;28;20679;-58
2024/01/06 05:02:15;;;;;;;41.27;26.73;;;;;;;3.04;100.00;96510.00;6207866;28;20272;-59
2024/01/06 05:05:23;;;;;;;38.73;26.27;;;;;;;3.03;100.00;96504.97;6188454;28;20560;-59
2024/01/06 05:08:30;;;;;;;34.77;24.30;;;;;;;3.04;100.00;96510.00;6188195;28;20568;-60
2024/01/06 05:11:33;;;;;;;34.37;24.63;;;;;;;3.02;100.00;96519.16;6206795;28;20201;-59
2024/01/06 05:14:38;;;;;;;35.03;25.33;;;;;;;3.02;100.00;96511.25;6195632;28;20240;-58
2024/01/06 05:17:42;;;;;;;34.70;24.50;;;;;;;3.01;100.00;96505.19;6196513;28;20202;-59
2024/01/06 05:20:44;;;;;;;36.37;23.93;;;;;;;3.03;100.00;96507.59;6202118;28;20193;-58
2024/01/06 05:23:49;;;;;;;34.77;24.40;;;;;;;3.04;100.00;96502.09;6207252;28;20394;-59
2024/01/06 05:26:52;;;;;;;32.10;22.87;;;;;;;3.02;100.00;96493.66;6190852;28;20275;-59
2024/01/06 05:29:56;;;;;;;34.40;24.60;;;;;;;3.01;100.00;96505.19;6209433;28;20316;-59
2024/01/06 05:33:03;;;;;;;33.53;24.20;;;;;;;3.00;100.00;96513.28;6216522;28;20185;-58
2024/01/06 05:36:08;;;;;;;31.37;22.13;;;;;;;3.00;100.00;96522.00;6205942;28;20214;-58
2024/01/06 05:39:12;;;;;;;30.87;23.00;;;;;;;3.00;100.00;96508.03;6208948;28;20197;-55
2024/01/06 05:42:17;;;;;;;30.90;23.53;;;;;;;2.99;100.00;96501.16;6208203;28;20267;-59
2024/01/06 05:45:22;;;;;;;30.67;21.13;;;;;;;3.01;100.00;96513.09;6209726;28;20215;-59
2024/01/06 05:48:30;;;;;;;32.60;22.03;;;;;;;3.02;100.00;96511.25;6192287;28;20219;-59
2024/01/06 05:51:32;;;;;;;25.80;19.53;;;;;;;3.01;100.00;96518.34;6212776;28;20205;-57
2024/01/06 05:54:42;;;;;;;31.60;21.87;;;;;;;3.01;100.00;96517.56;6211152;28;20716;-59
2024/01/06 05:57:47;;;;;;;29.50;19.80;;;;;;;3.02;100.00;96524.41;6208952;28;20296;-58
2024/01/06 06:00:53;;;;;;;25.23;18.87;;;;;;;3.03;100.00;96528.66;6206554;28;20805;-59
2024/01/06 06:03:58;;;;;;;25.80;20.37;;;;;;;3.02;100.00;96534.94;6204150;28;20681;-58
2024/01/06 06:07:02;;;;;;;28.00;20.17;;;;;;;3.03;100.00;96539.16;6210813;28;20195;-59
2024/01/06 06:10:09;;;;;;;27.33;19.00;;;;;;;3.04;100.00;96527.63;6207466;28;20213;-59
2024/01/06 06:13:16;;;;;;;28.40;20.60;;;;;;;3.03;100.00;96526.00;6209283;28;20697;-59
2024/01/06 06:16:19;;;;;;;27.63;21.20;;;;;;;3.02;100.00;96530.47;6202397;28;20308;-59
2024/01/06 06:19:22;;;;;;;36.47;24.07;;;;;;;3.01;100.00;96520.19;6212047;28;20184;-59
2024/01/06 06:22:29;;;;;;;32.13;22.30;;;;;;;3.00;100.00;96522.00;6208223;28;20673;-59
2024/01/06 06:25:37;;;;;;;32.90;23.10;;;;;;;3.00;100.00;96521.19;6205829;28;20276;-57
2024/01/06 06:28:39;;;;;;;31.53;22.77;;;;;;;3.00;100.00;96529.06;6204592;28;20562;-55
2024/01/06 06:31:44;;;;;;;27.63;19.63;;;;;;;3.02;100.00;96537.56;6203285;28;20194;-59
2024/01/06 06:34:47;;;;;;;31.33;22.67;;;;;;;2.99;100.00;96532.75;6208322;28;20576;-58
2024/01/06 06:37:49;;;;;;;28.07;20.97;;;;;;;3.00;100.00;96539.59;6205869;28;20232;-59
2024/01/06 06:40:52;;;;;;;29.73;21.03;;;;;;;2.99;100.00;96538.81;6203864;28;20574;-59
2024/01/06 06:43:54;;;;;;;28.10;19.57;;;;;;;3.01;100.00;96542.03;6198051;28;20190;-59
2024/01/06 06:46:57;;;;;;;23.93;17.90;;;;;;;3.04;100.00;96543.41;6199132;28;20732;-58
2024/01/06 06:50:00;;;;;;;26.07;17.87;;;;;;;3.04;100.00;96557.34;6206595;28;20768;-58
2024/01/06 06:53:03;;;;;;;31.97;21.73;;;;;;;3.05;100.00;96556.34;6208265;28;20295;-59
2024/01/06 06:56:06;;;;;;;27.73;20.90;;;;;;;2.95;100.00;96542.09;6203193;28;20267;-58
2024/01/06 06:59:09;;;;;;;32.53;22.17;;;;;;;3.02;100.00;96561.25;6203532;28;20701;-58
2024/01/06 07:02:11;;;;;;;33.17;21.33;;;;;;;3.01;100.00;96562.28;6205522;28;20673;-58
2024/01/06 07:05:13;;;;;;;31.30;20.80;;;;;;;3.00;100.00;96565.91;6205560;28;20203;-57
2024/01/06 07:08:16;;;;;;;28.00;18.90;;;;;;;2.94;100.00;96567.59;6205793;28;20197;-58
2024/01/06 07:11:19;;;;;;;27.40;19.10;;;;;;;2.95;100.00;96565.78;6185924;28;20229;-59
2024/01/06 07:14:21;;;;;;;30.53;20.77;;;;;;;2.95;100.00;96566.56;6213822;28;20200;-58
2024/01/06 07:17:23;;;;;;;28.63;19.67;;;;;;;2.87;100.00;96553.75;6207061;28;20251;-57
2024/01/06 07:20:26;;;;;;;30.23;20.87;;;;;;;2.94;100.00;96574.69;6199725;28;20201;-58
2024/01/06 07:23:28;;;;;;;30.40;19.20;;;;;;;2.92;100.00;96572.28;6200216;28;20230;-58
2024/01/06 07:26:30;;;;;;;28.90;19.67;;;;;;;2.89;100.00;96571.91;6200781;28;20270;-59
2024/01/06 07:29:32;;;;;;;30.93;19.13;;;;;;;2.92;100.00;96577.56;6198979;28;20660;-59
2024/01/06 07:32:35;;;;;;;25.47;17.90;;;;;;;2.92;100.00;96582.81;6210385;28;20229;-59
2024/01/06 07:35:42;;;;;;;29.27;18.53;;;;;;;2.94;100.00;96585.22;6200679;28;20195;-59
2024/01/06 07:38:45;;;;;;;27.93;19.07;;;;;;;2.93;100.00;96583.59;6201994;28;21199;-57
2024/01/06 07:41:48;;;;;;;29.20;19.50;;;;;;;2.95;100.00;96584.97;6208769;28;20204;-59
2024/01/06 07:44:50;;;;;;;30.23;19.40;;;;;;;2.90;100.00;96565.63;6208383;28;20266;-58
2024/01/06 07:47:52;;;;;;;23.97;17.40;;;;;;;2.91;100.00;96575.94;6210145;28;20660;-57
2024/01/06 07:50:55;;;;;;;23.97;17.13;;;;;;;2.97;100.00;96592.69;6208121;28;20213;-58
2024/01/06 07:53:58;;;;;;;30.00;18.30;;;;;;;2.91;100.00;96583.03;6203179;28;20246;-58
2024/01/06 07:57:02;;;;;;;27.33;18.07;;;;;;;2.94;100.00;96591.28;6203411;28;20207;-59
2024/01/06 08:00:19;;;;;;;26.57;18.07;;;;;;;2.99;100.00;96604.56;6209181;28;20190;-59
2024/01/06 08:03:40;;;;;;;29.33;18.17;;;;;;;3.01;100.00;96602.53;6205880;28;20292;-58
2024/01/06 08:06:47;;;;;;;28.00;19.10;;;;;;;3.00;100.00;96605.38;6206019;28;20263;-60
2024/01/06 08:10:04;;;;;;;25.00;16.33;;;;;;;2.99;100.00;96607.19;6207731;28;20201;-58
2024/01/06 08:13:46;;;;;;;27.53;16.80;;;;;;;3.01;100.00;96613.06;6213756;28;20186;-59
2024/01/06 08:17:03;;;;;;;24.67;16.93;;;;;;;3.04;100.00;96614.44;6203148;28;20279;-59
2024/01/06 08:20:06;;;;;;;24.60;17.40;;;;;;;3.06;100.00;96612.41;6205842;28;20605;-58
2024/01/06 08:23:29;;;;;;;24.07;16.83;;;;;;;3.06;100.00;96615.03;6199545;28;20209;-59
2024/01/06 08:26:42;;;;;;;24.43;15.53;;;;;;;3.06;100.00;96618.47;6208117;28;20185;-58
2024/01/06 08:29:48;;;;;;;21.33;14.40;;;;;;;3.08;100.00;96612.97;6188290;28;20209;-59
2024/01/06 08:33:03;;;;;;;20.23;14.60;;;;;;;3.12;100.00;96608.88;6213521;28;20189;-59
2024/01/06 08:36:14;;;;;;;23.33;14.43;;;;;;;3.08;100.00;96608.50;6210441;28;20279;-59
2024/01/06 08:39:41;;;;;;;18.70;13.27;;;;;;;3.09;100.00;96615.38;6205748;28;20221;-59
2024/01/06 08:43:01;;;;;;;21.03;14.20;;;;;;;3.13;100.00;96617.59;6211499;28;20209;-59
2024/01/06 08:46:18;;;;;;;17.93;12.53;;;;;;;3.06;100.00;96612.41;6209345;28;20198;-58
2024/01/06 08:49:28;;;;;;;16.07;11.97;;;;;;;2.99;100.00;96609.84;6206293;28;20193;-59
2024/01/06 08:52:38;;;;;;;16.23;11.77;;;;;;;3.11;100.00;96638.84;6210701;28;20197;-59
2024/01/06 08:55:57;;;;;;;14.87;10.57;;;;;;;3.00;100.00;96618.53;6210975;28;20235;-59
2024/01/06 08:59:04;;;;;;;13.40;10.47;;;;;;;3.07;100.00;96645.56;6207286;28;20565;-59
2024/01/06 09:02:27;;;;;;;9.30;7.30;;;;;;;3.15;100.00;96644.47;6190595;28;20423;-59
2024/01/06 09:06:06;;;;;;;6.97;5.83;;;;;;;3.11;100.00;96649.38;6212441;28;20192;-60
2024/01/06 09:13:44;;;;;;;5.57;4.97;;;;;;;3.07;100.00;96629.78;6208020;28;20213;-58
2024/01/06 09:17:35;;;;;;;6.77;5.23;;;;;;;3.10;100.00;96660.91;6196341;28;20218;-58
2024/01/06 09:25:12;;;;;;;5.00;3.80;;;;;;;3.13;100.00;96664.94;6212615;28;20907;-58
2024/01/06 09:28:40;;;;;;;5.20;3.70;;;;;;;3.18;100.00;96665.09;6212173;28;20197;-58
2024/01/06 09:36:11;;;;;;;4.07;3.30;;;;;;;3.19;100.00;96662.22;6207717;28;20277;-58
2024/01/06 09:40:20;;;;;;;5.80;3.50;;;;;;;3.17;100.00;96664.28;6207759;28;20204;-58
2024/01/06 09:52:43;;;;;;;4.23;3.63;;;;;;;3.24;100.00;96664.19;6179932;28;20233;-55
2024/01/06 09:56:34;;;;;;;3.77;3.40;;;;;;;3.22;100.00;96672.31;6214472;28;20249;-58
2024/01/06 09:59:47;;;;;;;4.00;2.80;;;;;;;3.17;100.00;96655.59;6212569;28;20197;-58
2024/01/06 10:07:57;;;;;;;4.27;2.60;;;;;;;3.21;100.00;96662.81;6193099;28;20693;-58
2024/01/06 10:11:41;;;;;;;4.07;3.67;;;;;;;3.19;100.00;96664.06;6105286;28;20235;-57
2024/01/06 10:15:28;;;;;;;4.30;3.27;;;;;;;3.09;100.00;96662.75;6162382;28;20194;-56
2024/01/06 10:18:31;;;;;;;3.57;3.20;;;;;;;3.16;100.00;96669.78;6184266;28;20224;-57
2024/01/06 10:21:34;;;;;;;5.00;4.23;;;;;;;3.15;100.00;96668.94;6206031;28;20193;-58
2024/01/06 10:24:39;;;;;;;5.37;4.33;;;;;;;3.13;100.00;96671.00;6206576;28;20208;-57
2024/01/06 10:27:41;;;;;;;5.77;4.60;;;;;;;3.08;100.00;96682.19;6209681;28;20208;-58
2024/01/06 10:30:44;;;;;;;6.03;4.90;;;;;;;3.06;100.00;96681.63;6207397;28;20216;-57
2024/01/06 10:33:46;;;;;;;6.20;5.03;;;;;;;3.05;100.00;96679.19;6204148;28;20681;-58
2024/01/06 10:36:51;;;;;;;5.83;4.77;;;;;;;2.92;100.00;96668.81;6202301;28;20204;-56
2024/01/06 10:40:15;;;;;;;6.80;5.33;;;;;;;2.94;100.00;96682.53;6199180;28;20259;-58
2024/01/06 10:43:20;;;;;;;5.70;5.10;;;;;;;2.93;100.00;96691.47;6203199;28;20501;-58
2024/01/06 10:46:25;;;;;;;6.37;5.00;;;;;;;2.74;100.00;96677.47;6204130;28;20205;-57
2024/01/06 10:49:29;;;;;;;5.93;4.60;;;;;;;2.85;100.00;96680.19;6205132;28;20214;-55
2024/01/06 10:52:34;;;;;;;5.50;4.80;;;;;;;2.82;100.00;96675.38;6204639;28;20216;-58
2024/01/06 10:55:38;;;;;;;5.00;4.30;;;;;;;2.82;100.00;96682.47;6203945;28;20224;-59
2024/01/06 10:58:47;;;;;;;5.30;4.73;;;;;;;2.79;100.00;96675.00;6200698;28;20567;-58
2024/01/06 11:01:52;;;;;;;5.53;4.43;;;;;;;2.81;100.00;96665.88;6201096;28;20192;-57
2024/01/06 11:04:55;;;;;;;5.13;4.23;;;;;;;2.87;100.00;96671.28;6200241;28;20190;-58
2024/01/06 11:08:00;;;;;;;4.20;3.80;;;;;;;2.88;100.00;96652.66;6203635;28;20303;-58
2024/01/06 11:11:04;;;;;;;3.50;3.20;;;;;;;2.95;100.00;96658.63;6204828;28;20217;-56
2024/01/06 11:14:27;;;;;;;4.43;4.03;;;;;;;2.98;100.00;96647.69;6208662;28;20251;-58
2024/01/06 11:17:53;;;;;;;4.00;3.60;;;;;;;2.96;100.00;96643.69;6203318;28;20197;-56
2024/01/06 11:21:12;;;;;;;5.03;3.73;;;;;;;2.99;100.00;96648.50;6204483;28;20951;-58
2024/01/06 11:24:21;;;;;;;4.07;3.60;;;;;;;2.95;100.00;96642.84;6198865;28;20207;-56
2024/01/06 11:27:29;;;;;;;3.50;3.20;;;;;;;2.92;100.00;96650.41;6200273;28;20204;-58
2024/01/06 11:30:34;;;;;;;3.80;3.23;;;;;;;2.92;100.00;96643.31;6198534;28;20208;-57
2024/01/06 11:33:49;;;;;;;3.47;3.17;;;;;;;2.91;100.00;96633.03;6198225;28;20700;-58
2024/01/06 11:36:53;;;;;;;3.70;3.23;;;;;;;2.90;100.00;96634.00;6198574;28;20201;-57
2024/01/06 11:39:55;;;;;;;3.97;3.60;;;;;;;2.81;100.00;96626.44;6198712;28;20214;-58
2024/01/06 11:42:59;;;;;;;3.70;3.33;;;;;;;2.86;100.00;96631.03;6202534;28;20197;-57
2024/01/06 11:46:02;;;;;;;4.17;3.77;;;;;;;2.83;100.00;96631.47;6199336;28;20205;-58
2024/01/06 11:49:06;;;;;;;3.80;3.40;;;;;;;2.81;100.00;96626.44;6204600;28;20206;-59
2024/01/06 11:52:09;;;;;;;3.27;2.97;;;;;;;2.80;100.00;96637.94;6200409;28;20712;-56
2024/01/06 11:55:12;;;;;;;4.70;3.50;;;;;;;2.81;100.00;96636.16;6205825;28;21211;-57
2024/01/06 11:58:17;;;;;;;3.33;3.00;;;;;;;2.83;100.00;96640.16;6202384;28;20193;-58
2024/01/06 12:01:19;;;;;;;3.40;3.07;;;;;;;2.92;100.00;96626.72;6207171;28;20219;-56
2024/01/06 12:04:22;;;;;;;3.20;2.90;;;;;;;2.84;100.00;96640.97;6209875;28;20281;-59
2024/01/06 12:07:24;;;;;;;3.30;3.00;;;;;;;2.83;100.00;96640.16;6211595;28;20733;-58
2024/01/06 12:10:32;;;;;;;2.63;2.43;;;;;;;2.77;100.00;96637.59;6204539;28;20248;-57
2024/01/06 12:13:34;;;;;;;3.40;3.10;;;;;;;2.82;100.00;96640.38;6198816;28;20209;-57
2024/01/06 12:16:36;;;;;;;3.23;2.93;;;;;;;2.70;100.00;96640.28;6205531;28;20793;-58
2024/01/06 12:19:41;;;;;;;3.53;3.03;;;;;;;2.68;100.00;96637.06;6205140;28;20199;-56
2024/01/06 12:22:44;;;;;;;3.53;3.23;;;;;;;2.69;100.00;96643.13;6205721;28;20196;-56
2024/01/06 12:25:49;;;;;;;3.40;3.10;;;;;;;2.76;100.00;96639.44;6184752;28;20552;-57
2024/01/06 12:28:52;;;;;;;3.37;3.07;;;;;;;2.65;100.00;96637.50;6205310;28;20207;-57
2024/01/06 12:31:54;;;;;;;3.97;3.57;;;;;;;2.50;100.00;96622.06;6197714;28;20686;-57
2024/01/06 12:34:58;;;;;;;3.33;3.03;;;;;;;2.67;100.00;96639.94;6195186;28;20200;-56
2024/01/06 12:38:05;;;;;;;2.57;2.37;;;;;;;2.68;100.00;96639.69;6203687;28;20232;-56
2024/01/06 12:41:10;;;;;;;3.10;2.80;;;;;;;2.64;100.00;96635.91;6204518;28;20663;-56
2024/01/06 12:44:12;;;;;;;3.63;3.33;;;;;;;2.62;100.00;96635.31;6207242;28;20206;-56
2024/01/06 12:47:15;;;;;;;3.30;3.00;;;;;;;2.59;100.00;96643.63;6208779;28;20264;-56
2024/01/06 12:50:18;;;;;;;3.27;2.97;;;;;;;2.65;100.00;96626.97;6212333;28;20191;-53
2024/01/06 12:53:20;;;;;;;3.27;2.97;;;;;;;2.58;100.00;96639.41;6208930;28;20206;-55
2024/01/06 12:56:22;;;;;;;3.50;3.20;;;;;;;2.61;100.00;96638.16;6213320;28;20330;-55
2024/01/06 12:59:24;;;;;;;3.10;2.87;;;;;;;2.66;100.00;96641.75;6214704;28;20209;-56
2024/01/06 13:02:26;;;;;;;3.23;2.90;;;;;;;2.67;100.00;96646.00;6204631;28;20200;-56
2024/01/06 13:05:29;;;;;;;3.43;2.60;;;;;;;2.77;100.00;96641.03;6206151;28;20192;-55
2024/01/06 13:08:32;;;;;;;3.57;3.00;;;;;;;2.69;100.00;96636.03;6189093;28;20556;-57
2024/01/06 13:11:36;;;;;;;2.70;2.50;;;;;;;2.67;100.00;96650.44;6209068;28;20218;-56
2024/01/06 13:14:38;;;;;;;2.80;2.60;;;;;;;2.77;100.00;96643.66;6211236;28;20206;-55
2024/01/06 13:17:40;;;;;;;3.10;2.80;;;;;;;2.68;100.00;96636.28;6205715;28;20276;-54
2024/01/06 13:20:43;;;;;;;3.00;2.70;;;;;;;2.75;100.00;96647.50;6204663;28;20204;-56
2024/01/06 13:23:45;;;;;;;6.50;2.73;;;;;;;2.73;100.00;96642.47;6199786;28;20480;-56
2024/01/06 13:26:48;;;;;;;2.97;2.70;;;;;;;2.84;100.00;96639.13;6202900;28;20279;-55
2024/01/06 13:29:51;;;;;;;3.30;3.00;;;;;;;2.75;100.00;96627.28;6203637;28;20241;-56
2024/01/06 13:32:54;;;;;;;2.83;2.63;;;;;;;2.79;100.00;96644.25;6203053;28;20307;-55
2024/01/06 13:35:57;;;;;;;3.60;3.30;;;;;;;2.90;100.00;96639.28;6190744;28;20288;-58
2024/01/06 13:38:59;;;;;;;3.13;2.83;;;;;;;3.05;100.00;96643.19;6204850;28;20343;-53
2024/01/06 13:42:05;;;;;;;3.10;2.77;;;;;;;2.96;100.00;96631.34;6200724;28;20738;-57
2024/01/06 13:45:08;;;;;;;3.33;3.00;;;;;;;2.94;100.00;96632.56;6173928;28;20214;-55
2024/01/06 13:48:10;;;;;;;3.53;3.23;;;;;;;3.04;100.00;96640.75;6197736;28;20573;-55
2024/01/06 13:51:13;;;;;;;3.30;3.00;;;;;;;3.10;100.00;96630.16;6201347;28;20247;-56
2024/01/06 13:54:15;;;;;;;3.63;3.30;;;;;;;2.97;100.00;96632.13;6202586;28;20203;-58
2024/01/06 13:57:21;;;;;;;3.40;3.10;;;;;;;3.13;100.00;96647.31;6199084;28;20197;-56
2024/01/06 14:00:24;;;;;;;3.13;2.83;;;;;;;3.13;100.00;96642.06;6208943;28;20236;-55
2024/01/06 14:03:26;;;;;;;3.30;3.00;;;;;;;2.99;100.00;96644.03;6213365;28;20198;-55
2024/01/06 14:06:33;;;;;;;2.97;2.67;;;;;;;2.97;100.00;96650.56;6214413;28;20201;-55
2024/01/06 14:09:36;;;;;;;3.83;3.33;;;;;;;2.92;100.00;96650.41;6205277;28;20200;-56
2024/01/06 14:12:40;;;;;;;4.43;3.43;;;;;;;2.91;100.00;96649.59;6200666;28;20756;-54
2024/01/06 14:15:43;;;;;;;3.37;3.07;;;;;;;3.03;100.00;96645.22;6205084;28;20203;-54
2024/01/06 14:18:46;;;;;;;3.90;3.50;;;;;;;3.03;100.00;96650.47;6205816;28;20202;-54
2024/01/06 14:21:50;;;;;;;3.50;3.20;;;;;;;3.00;100.00;96650.09;6210857;28;20200;-56
2024/01/06 14:24:52;;;;;;;3.63;3.33;;;;;;;3.10;100.00;96647.75;6211560;28;20200;-53
2024/01/06 14:27:55;;;;;;;3.33;3.00;;;;;;;3.07;100.00;96642.94;6210906;28;20205;-53
2024/01/06 14:30:57;;;;;;;3.50;3.20;;;;;;;3.06;100.00;96649.25;6206170;28;20202;-54
2024/01/06 14:33:59;;;;;;;3.57;3.27;;;;;;;2.99;100.00;96662.44;6202866;28;20200;-57
2024/01/06 14:37:02;;;;;;;4.03;3.60;;;;;;;2.83;100.00;96629.63;6203303;28;20228;-56
2024/01/06 14:40:07;;;;;;;3.57;3.27;;;;;;;3.09;100.00;96659.31;6206125;28;20205;-59
2024/01/06 14:43:10;;;;;;;3.47;2.97;;;;;;;2.94;100.00;96637.81;6206324;28;20204;-55
2024/01/06 14:46:12;;;;;;;4.00;3.00;;;;;;;3.02;100.00;96654.13;6210113;28;20213;-56
2024/01/06 14:49:14;;;;;;;3.23;2.90;;;;;;;3.00;100.00;96650.91;6211920;28;20586;-55
2024/01/06 14:52:18;;;;;;;3.20;2.90;;;;;;;3.21;100.00;96652.31;6204719;28;20217;-55
2024/01/06 14:55:20;;;;;;;3.97;3.53;;;;;;;3.09;100.00;96654.03;6199086;28;20248;-55